Time;durP1;ratioP1;P1;durP2;ratioP2;P2;SDS_P1;SDS_P2;PMS_P1;PMS_P2;Temp;Humidity;BMP_temperature;BMP_pressure;BME280_temperature;BME280_humidity;BME280_pressure;Samples;Min_cycle;Max_cycle;Signal;HPM_P1;HPM_P2
2020/12/27 00:00:21;;;;;;;6.70;3.47;;;;;;;-4.79;100.00;96448.88;4977640;28;20493;-48
2020/12/27 00:02:48;;;;;;;5.60;3.42;;;;;;;-4.85;100.00;96433.69;4945766;28;20034;-47
2020/12/27 00:05:15;;;;;;;7.47;3.95;;;;;;;-4.82;100.00;96436.16;4987481;28;20038;-49
2020/12/27 00:07:46;;;;;;;5.47;3.25;;;;;;;-4.79;100.00;96436.00;4953238;28;20118;-47
2020/12/27 00:10:13;;;;;;;7.32;3.53;;;;;;;-4.87;100.00;96425.16;4986647;28;20050;-48
2020/12/27 00:12:39;;;;;;;6.00;3.55;;;;;;;-4.79;100.00;96418.00;4981850;28;20382;-48
2020/12/27 00:15:08;;;;;;;6.75;3.83;;;;;;;-4.87;100.00;96414.03;4960188;28;20485;-50
2020/12/27 00:17:35;;;;;;;5.95;3.47;;;;;;;-4.84;100.00;96413.94;4984913;28;20393;-48
2020/12/27 00:20:04;;;;;;;5.82;3.33;;;;;;;-4.85;100.00;96412.22;4945755;28;20074;-46
2020/12/27 00:22:31;;;;;;;5.55;3.45;;;;;;;-4.92;100.00;96408.19;4984303;28;20050;-49
2020/12/27 00:24:58;;;;;;;6.65;3.60;;;;;;;-5.01;100.00;96402.47;4943032;28;20038;-49
2020/12/27 00:27:25;;;;;;;7.90;4.10;;;;;;;-5.10;100.00;96391.66;4978726;28;20563;-49
2020/12/27 00:29:52;;;;;;;7.63;3.80;;;;;;;-5.27;100.00;96387.06;4950808;28;20038;-50
2020/12/27 00:32:20;;;;;;;8.32;3.70;;;;;;;-5.29;100.00;96384.56;4979791;28;20034;-46
2020/12/27 00:34:51;;;;;;;6.45;3.65;;;;;;;-5.17;100.00;96377.34;4951680;28;20070;-48
2020/12/27 00:37:18;;;;;;;5.90;3.58;;;;;;;-5.11;100.00;96372.84;4976670;28;20438;-50
2020/12/27 00:39:46;;;;;;;6.30;3.20;;;;;;;-5.12;100.00;96376.31;4947475;28;20559;-49
2020/12/27 00:42:13;;;;;;;9.88;3.70;;;;;;;-5.17;100.00;96361.91;4984580;28;20104;-48
2020/12/27 00:44:41;;;;;;;9.20;3.85;;;;;;;-5.17;100.00;96367.88;4946892;28;20042;-51
2020/12/27 00:47:08;;;;;;;6.65;3.25;;;;;;;-5.19;100.00;96364.56;4984096;28;20053;-47
2020/12/27 00:49:36;;;;;;;5.88;3.10;;;;;;;-5.31;100.00;96352.09;4950893;28;20137;-49
2020/12/27 00:52:03;;;;;;;5.45;3.22;;;;;;;-5.26;100.00;96360.50;4976693;28;20050;-47
2020/12/27 00:54:31;;;;;;;5.63;3.17;;;;;;;-5.27;100.00;96351.94;4923946;28;20038;-53
2020/12/27 00:56:58;;;;;;;5.00;3.10;;;;;;;-5.34;100.00;96357.34;4981685;28;20050;-47
2020/12/27 00:59:27;;;;;;;6.03;3.35;;;;;;;-5.39;100.00;96354.09;4984135;28;20037;-49
2020/12/27 01:01:59;;;;;;;5.65;3.40;;;;;;;-5.34;100.00;96358.16;4937306;28;20425;-45
2020/12/27 01:04:45;;;;;;;4.80;2.75;;;;;;;-5.19;100.00;96354.28;4986233;28;20188;-50
2020/12/27 01:07:15;;;;;;;5.75;2.90;;;;;;;-5.16;100.00;96349.03;4960877;28;20045;-46
2020/12/27 01:09:49;;;;;;;5.45;2.88;;;;;;;-5.19;100.00;96354.28;4978744;28;20496;-45
2020/12/27 01:12:16;;;;;;;5.55;3.30;;;;;;;-5.13;100.00;96350.63;4953055;28;20042;-47
2020/12/27 01:14:45;;;;;;;6.22;3.53;;;;;;;-5.13;100.00;96356.59;4984962;28;20037;-47
2020/12/27 01:17:29;;;;;;;4.53;2.60;;;;;;;-5.14;100.00;96354.09;4947167;28;20042;-46
2020/12/27 01:19:57;;;;;;;4.40;2.95;;;;;;;-5.21;100.00;96360.34;4984772;28;20038;-45
2020/12/27 01:22:24;;;;;;;4.70;2.90;;;;;;;-5.29;100.00;96345.19;4950728;28;20572;-45
2020/12/27 01:25:20;;;;;;;6.07;3.05;;;;;;;-5.46;100.00;96338.03;4970127;28;20100;-45
2020/12/27 01:27:48;;;;;;;5.55;3.00;;;;;;;-5.67;100.00;96336.19;4947852;28;20524;-45
2020/12/27 01:30:15;;;;;;;5.00;2.72;;;;;;;-5.81;100.00;96334.06;4981632;28;20570;-47
2020/12/27 01:32:49;;;;;;;5.18;2.83;;;;;;;-5.76;100.00;96325.28;4942370;28;20462;-46
2020/12/27 01:35:34;;;;;;;5.13;3.10;;;;;;;-5.67;100.00;96321.59;4992134;28;20524;-46
2020/12/27 01:38:03;;;;;;;6.60;2.95;;;;;;;-5.67;100.00;96325.91;4945213;28;20405;-46
2020/12/27 01:40:30;;;;;;;5.05;2.97;;;;;;;-5.76;100.00;96307.31;4976630;28;20050;-49
2020/12/27 01:42:58;;;;;;;6.15;3.08;;;;;;;-5.91;100.00;96302.69;4939172;28;20056;-46
2020/12/27 01:45:27;;;;;;;6.70;2.88;;;;;;;-5.97;100.00;96300.34;4983712;28;20077;-49
2020/12/27 01:48:11;;;;;;;4.93;3.03;;;;;;;-6.12;100.00;96291.41;4940514;28;20158;-46
2020/12/27 01:50:40;;;;;;;5.10;3.13;;;;;;;-6.23;100.00;96285.75;4983561;28;20553;-48
2020/12/27 01:53:08;;;;;;;6.90;3.10;;;;;;;-6.17;100.00;96277.88;4924705;28;20161;-47
2020/12/27 01:55:38;;;;;;;5.88;2.95;;;;;;;-6.16;100.00;96282.09;4980822;28;20042;-50
2020/12/27 01:58:16;;;;;;;5.93;2.97;;;;;;;-6.21;100.00;96269.44;4947014;28;20136;-49
2020/12/27 02:00:59;;;;;;;5.95;3.28;;;;;;;-6.02;100.00;96263.69;4983718;28;20133;-45
2020/12/27 02:03:49;;;;;;;6.45;3.40;;;;;;;-5.91;100.00;96250.50;4971583;28;20041;-46
2020/12/27 02:06:34;;;;;;;5.00;3.15;;;;;;;-5.67;100.00;96242.00;4976964;28;20064;-46
2020/12/27 02:09:11;;;;;;;5.65;3.42;;;;;;;-5.59;100.00;96234.84;4940752;28;20042;-47
2020/12/27 02:11:46;;;;;;;6.65;3.10;;;;;;;-5.63;100.00;96232.44;4980548;28;20040;-46
2020/12/27 02:14:13;;;;;;;7.40;3.20;;;;;;;-5.69;100.00;96228.34;4946420;28;20050;-47
2020/12/27 02:16:42;;;;;;;7.82;3.65;;;;;;;-5.64;100.00;96218.78;4980998;28;20066;-46
2020/12/27 02:19:27;;;;;;;6.38;3.15;;;;;;;-5.47;100.00;96199.34;4950038;28;20514;-46
2020/12/27 02:22:01;;;;;;;9.05;3.60;;;;;;;-5.47;100.00;96181.38;4956086;28;20121;-47
2020/12/27 02:24:49;;;;;;;7.10;3.45;;;;;;;-5.43;100.00;96175.25;4947739;28;20073;-49
2020/12/27 02:27:21;;;;;;;4.68;2.95;;;;;;;-5.55;100.00;96173.94;4979657;28;20052;-46
2020/12/27 02:29:50;;;;;;;4.97;2.95;;;;;;;-5.65;100.00;96173.41;4955974;28;20123;-46
2020/12/27 02:32:20;;;;;;;4.85;3.17;;;;;;;-5.65;100.00;96165.72;4965366;28;20114;-47
2020/12/27 02:34:47;;;;;;;7.70;3.15;;;;;;;-5.76;100.00;96160.94;4950856;28;20540;-46
2020/12/27 02:37:14;;;;;;;8.82;3.22;;;;;;;-5.77;100.00;96155.88;4976989;28;20050;-45
2020/12/27 02:39:55;;;;;;;5.75;3.03;;;;;;;-5.92;100.00;96156.44;4951732;28;20065;-46
2020/12/27 02:42:24;;;;;;;7.25;3.10;;;;;;;-5.99;100.00;96151.53;4978282;28;20556;-45
2020/12/27 02:47:57;;;;;;;5.25;2.58;;;;;;;-6.22;100.00;96141.19;4984042;28;20050;-46
2020/12/27 02:50:36;;;;;;;5.55;2.60;;;;;;;-6.21;100.00;96130.03;4942854;28;20557;-49
2020/12/27 02:53:04;;;;;;;5.47;3.00;;;;;;;-6.37;100.00;96119.44;4977141;28;20544;-45
2020/12/27 02:55:33;;;;;;;6.22;2.83;;;;;;;-6.33;100.00;96109.91;4947436;28;20050;-47
2020/12/27 02:58:00;;;;;;;4.70;2.55;;;;;;;-6.30;100.00;96109.81;4973215;28;20116;-49
2020/12/27 03:00:32;;;;;;;5.20;2.78;;;;;;;-6.23;100.00;96106.13;4938091;28;20047;-47
2020/12/27 03:03:17;;;;;;;6.10;3.17;;;;;;;-6.35;100.00;96097.13;4981952;28;20042;-48
2020/12/27 03:05:52;;;;;;;4.95;2.45;;;;;;;-6.37;100.00;96096.34;4944716;28;20095;-45
2020/12/27 03:08:20;;;;;;;4.65;2.45;;;;;;;-6.41;100.00;96089.66;4982663;28;20054;-45
2020/12/27 03:11:06;;;;;;;4.72;2.60;;;;;;;-6.48;100.00;96078.75;4946846;28;20058;-45
2020/12/27 03:13:34;;;;;;;4.63;2.63;;;;;;;-6.52;100.00;96076.34;4982491;28;20034;-49
2020/12/27 03:16:01;;;;;;;4.60;2.67;;;;;;;-6.50;100.00;96070.28;4945510;28;20101;-47
2020/12/27 03:18:39;;;;;;;3.85;2.40;;;;;;;-6.46;100.00;96064.16;4980110;28;20501;-47
2020/12/27 03:21:24;;;;;;;5.35;3.08;;;;;;;-6.34;100.00;96056.94;4947902;28;20050;-48
2020/12/27 03:23:51;;;;;;;5.05;2.40;;;;;;;-6.36;100.00;96049.31;5004096;28;20054;-44
2020/12/27 03:26:25;;;;;;;4.93;2.83;;;;;;;-6.43;100.00;96044.41;4946130;28;20202;-47
2020/12/27 03:28:53;;;;;;;6.30;2.60;;;;;;;-6.38;100.00;96038.25;4986418;28;20057;-49
2020/12/27 03:31:20;;;;;;;5.93;2.45;;;;;;;-6.28;100.00;96038.78;4947912;28;20082;-49
2020/12/27 03:33:50;;;;;;;4.53;2.43;;;;;;;-6.11;100.00;96025.34;4978145;28;20058;-46
2020/12/27 03:36:17;;;;;;;4.32;2.53;;;;;;;-6.21;100.00;96030.78;4937932;28;20540;-46
2020/12/27 03:38:52;;;;;;;3.80;2.40;;;;;;;-6.26;100.00;96024.16;5000109;28;20069;-49
2020/12/27 03:41:39;;;;;;;4.30;2.47;;;;;;;-6.18;100.00;96022.16;4946068;28;20074;-46
2020/12/27 03:44:25;;;;;;;4.82;3.05;;;;;;;-6.18;100.00;96017.03;4987424;28;20524;-50
2020/12/27 03:47:10;;;;;;;4.78;2.75;;;;;;;-5.97;100.00;95995.72;4953719;28;20049;-50
2020/12/27 03:49:49;;;;;;;5.82;2.92;;;;;;;-6.02;100.00;95995.06;4998836;28;20042;-49
2020/12/27 03:52:22;;;;;;;4.45;2.50;;;;;;;-6.03;100.00;96000.22;4954453;28;20039;-48
2020/12/27 03:55:09;;;;;;;5.70;3.20;;;;;;;-5.97;100.00;95989.75;4984681;28;20046;-52
2020/12/27 03:57:56;;;;;;;5.28;2.45;;;;;;;-5.98;100.00;95980.38;4941811;28;20516;-49
2020/12/27 04:00:42;;;;;;;4.22;2.47;;;;;;;-6.01;100.00;95975.38;4983417;28;20117;-47
2020/12/27 04:03:24;;;;;;;4.20;2.60;;;;;;;-6.02;100.00;95966.81;4942355;28;20425;-46
2020/12/27 04:05:54;;;;;;;4.70;2.80;;;;;;;-6.03;100.00;95960.00;4987797;28;20390;-53
2020/12/27 04:08:26;;;;;;;7.35;2.88;;;;;;;-6.02;100.00;95954.00;4952104;28;20054;-47
2020/12/27 04:10:53;;;;;;;5.80;2.78;;;;;;;-5.95;100.00;95946.03;4986673;28;20042;-45
2020/12/27 04:13:21;;;;;;;5.25;2.90;;;;;;;-5.95;100.00;95938.34;4968759;28;20406;-49
2020/12/27 04:16:01;;;;;;;5.35;2.90;;;;;;;-5.86;100.00;95931.09;4984772;28;20042;-47
2020/12/27 04:18:30;;;;;;;5.60;2.90;;;;;;;-5.88;100.00;95932.09;4959759;28;20054;-45
2020/12/27 04:21:15;;;;;;;5.60;3.15;;;;;;;-5.97;100.00;95934.13;4980614;28;20058;-49
2020/12/27 04:23:49;;;;;;;5.68;3.08;;;;;;;-5.94;100.00;95922.06;4946284;28;20050;-49
2020/12/27 04:26:18;;;;;;;5.88;3.30;;;;;;;-6.05;100.00;95922.47;4984668;28;20058;-50
2020/12/27 04:28:51;;;;;;;6.60;2.80;;;;;;;-6.06;100.00;95913.91;4949325;28;20050;-48
2020/12/27 04:31:20;;;;;;;5.85;3.00;;;;;;;-6.15;100.00;95913.44;4982908;28;20050;-48
2020/12/27 04:33:56;;;;;;;5.18;2.97;;;;;;;-6.13;100.00;95907.34;4954166;28;20053;-46
2020/12/27 04:36:40;;;;;;;6.40;2.90;;;;;;;-5.99;100.00;95902.56;4975849;28;20155;-53
2020/12/27 04:39:10;;;;;;;5.00;2.90;;;;;;;-6.01;100.00;95895.81;4954740;28;20946;-47
2020/12/27 04:41:45;;;;;;;5.20;2.95;;;;;;;-5.97;100.00;95894.78;4985709;28;20043;-48
2020/12/27 04:44:23;;;;;;;4.72;2.80;;;;;;;-5.95;100.00;95884.44;4951451;28;20420;-46
2020/12/27 04:46:54;;;;;;;5.15;3.10;;;;;;;-5.88;100.00;95878.19;5000497;28;20481;-46
2020/12/27 04:49:38;;;;;;;7.38;2.63;;;;;;;-5.87;100.00;95867.00;4953384;28;20378;-48
2020/12/27 04:52:11;;;;;;;5.57;2.88;;;;;;;-5.87;100.00;95849.03;4985017;28;20121;-48
2020/12/27 04:55:01;;;;;;;5.35;3.10;;;;;;;-5.84;100.00;95849.75;4942785;28;20141;-48
2020/12/27 04:57:50;;;;;;;4.90;2.83;;;;;;;-5.77;100.00;95843.47;4984667;28;20140;-45
2020/12/27 05:00:27;;;;;;;5.23;3.10;;;;;;;-5.78;100.00;95846.06;4941462;28;20049;-45
2020/12/27 05:03:13;;;;;;;6.38;3.33;;;;;;;-5.72;100.00;95838.97;4984071;28;20364;-45
2020/12/27 05:05:43;;;;;;;6.53;3.00;;;;;;;-5.73;100.00;95834.75;4947150;28;20042;-46
2020/12/27 05:08:11;;;;;;;5.30;2.90;;;;;;;-5.72;100.00;95830.44;4981863;28;20136;-47
2020/12/27 05:10:49;;;;;;;5.65;2.78;;;;;;;-5.71;100.00;95824.41;4946494;28;20509;-50
2020/12/27 05:13:34;;;;;;;5.03;2.40;;;;;;;-5.86;100.00;95825.03;4985185;28;20034;-46
2020/12/27 05:16:20;;;;;;;8.50;3.28;;;;;;;-5.84;100.00;95831.78;4934152;28;20436;-49
2020/12/27 05:18:50;;;;;;;9.40;3.58;;;;;;;-5.89;100.00;95828.53;4994984;28;20046;-49
2020/12/27 05:21:19;;;;;;;11.07;4.30;;;;;;;-6.02;100.00;95832.50;4947484;28;21577;-49
2020/12/27 05:23:46;;;;;;;8.32;3.83;;;;;;;-5.97;100.00;95831.44;4985743;28;20917;-47
2020/12/27 05:26:28;;;;;;;8.52;3.05;;;;;;;-6.06;100.00;95831.78;4965459;28;20054;-46
2020/12/27 05:29:09;;;;;;;6.03;2.50;;;;;;;-5.85;100.00;95830.09;4981738;28;20542;-49
2020/12/27 05:31:48;;;;;;;5.32;3.22;;;;;;;-5.77;100.00;95834.94;4939183;28;20054;-48
2020/12/27 05:34:50;;;;;;;5.22;2.72;;;;;;;-5.90;100.00;95824.31;4985989;28;20049;-48
2020/12/27 05:37:50;;;;;;;9.13;3.80;;;;;;;-5.90;100.00;95824.31;4983775;28;20050;-46
2020/12/27 05:40:39;;;;;;;6.55;3.15;;;;;;;-5.97;100.00;95825.47;4940750;28;20121;-46
2020/12/27 05:43:24;;;;;;;4.55;2.35;;;;;;;-5.99;100.00;95828.13;4991560;28;20517;-48
2020/12/27 05:45:58;;;;;;;3.80;2.42;;;;;;;-5.90;100.00;95823.47;4945281;28;20436;-47
2020/12/27 05:48:30;;;;;;;6.53;2.88;;;;;;;-5.95;100.00;95815.13;4978202;28;20042;-46
2020/12/27 05:51:02;;;;;;;5.07;2.60;;;;;;;-6.07;100.00;95804.47;4950044;28;20038;-46
2020/12/27 05:53:31;;;;;;;7.30;3.00;;;;;;;-6.15;100.00;95803.94;4999267;28;20042;-46
2020/12/27 05:56:03;;;;;;;6.63;3.70;;;;;;;-6.30;100.00;95791.69;4980378;28;20050;-47
2020/12/27 05:58:38;;;;;;;6.93;3.40;;;;;;;-6.31;100.00;95785.75;4995945;28;20046;-47
2020/12/27 06:01:21;;;;;;;6.10;2.95;;;;;;;-6.36;100.00;95785.09;4982358;28;20062;-46
2020/12/27 06:03:58;;;;;;;4.25;2.80;;;;;;;-6.32;100.00;95778.13;4978839;28;20129;-47
2020/12/27 06:07:13;;;;;;;4.72;2.58;;;;;;;-6.31;100.00;95778.03;4973959;28;20111;-53
2020/12/27 06:10:03;;;;;;;5.65;3.00;;;;;;;-6.26;100.00;95768.44;4983717;28;20690;-48
2020/12/27 06:13:07;;;;;;;5.07;3.17;;;;;;;-6.18;100.00;95755.31;4945505;28;20071;-45
2020/12/27 06:15:36;;;;;;;6.80;3.33;;;;;;;-6.11;100.00;95750.78;4958888;28;20049;-46
2020/12/27 06:18:25;;;;;;;6.03;3.13;;;;;;;-6.11;100.00;95736.22;4951770;28;20401;-47
2020/12/27 06:21:11;;;;;;;5.55;3.28;;;;;;;-6.28;100.00;95741.19;4981711;28;20122;-47
2020/12/27 06:23:46;;;;;;;6.65;3.25;;;;;;;-6.38;100.00;95745.00;4947052;28;20042;-47
2020/12/27 06:26:16;;;;;;;5.72;2.88;;;;;;;-6.30;100.00;95742.97;4996544;28;20042;-48
2020/12/27 06:29:13;;;;;;;5.50;3.22;;;;;;;-6.26;100.00;95737.66;4934499;28;20041;-49
2020/12/27 06:31:51;;;;;;;4.97;2.70;;;;;;;-6.34;100.00;95728.59;4961671;28;20070;-46
2020/12/27 06:34:33;;;;;;;5.45;2.90;;;;;;;-6.48;100.00;95722.28;4949350;28;20046;-49
2020/12/27 06:37:07;;;;;;;4.65;2.30;;;;;;;-6.37;100.00;95714.16;4972926;28;20046;-47
2020/12/27 06:39:52;;;;;;;3.63;2.10;;;;;;;-6.45;100.00;95706.78;4956639;28;20189;-44
2020/12/27 06:43:18;;;;;;;3.95;2.47;;;;;;;-6.79;100.00;95701.28;4931400;28;20039;-45
2020/12/27 06:46:19;;;;;;;7.05;2.65;;;;;;;-6.98;100.00;95698.59;4959736;28;20537;-46
2020/12/27 06:49:09;;;;;;;4.57;2.47;;;;;;;-7.05;100.00;95695.44;4946739;28;20082;-50
2020/12/27 06:51:54;;;;;;;4.60;2.60;;;;;;;-6.98;100.00;95694.31;4979114;28;20417;-48
2020/12/27 06:54:43;;;;;;;4.60;2.72;;;;;;;-6.60;100.00;95689.44;4952701;28;20126;-44
2020/12/27 06:57:41;;;;;;;5.15;2.78;;;;;;;-6.65;100.00;95687.94;4979620;28;20464;-47
2020/12/27 07:00:29;;;;;;;4.47;2.50;;;;;;;-6.66;100.00;95676.03;4940767;28;20162;-51
2020/12/27 07:03:19;;;;;;;4.70;3.13;;;;;;;-6.51;100.00;95668.53;4986422;28;20050;-46
2020/12/27 07:05:47;;;;;;;4.75;3.13;;;;;;;-6.47;100.00;95659.84;4947425;28;20038;-48
2020/12/27 07:08:16;;;;;;;5.38;3.20;;;;;;;-6.52;100.00;95661.75;4985655;28;20058;-50
2020/12/27 07:10:45;;;;;;;4.18;2.63;;;;;;;-6.52;100.00;95656.63;4953886;28;20074;-48
2020/12/27 07:13:13;;;;;;;4.83;2.97;;;;;;;-6.51;100.00;95648.03;4988431;28;20053;-47
2020/12/27 07:15:48;;;;;;;5.85;2.78;;;;;;;-6.47;100.00;95653.88;4951352;28;20051;-47
2020/12/27 07:18:21;;;;;;;4.97;2.67;;;;;;;-6.25;100.00;95659.81;4983485;28;20042;-47
2020/12/27 07:20:50;;;;;;;5.30;2.58;;;;;;;-6.10;100.00;95654.94;4946315;28;20058;-47
2020/12/27 07:23:19;;;;;;;4.20;2.60;;;;;;;-5.94;100.00;95648.25;4983692;28;20217;-45
2020/12/27 07:25:48;;;;;;;4.68;2.90;;;;;;;-5.78;100.00;95638.13;4947365;28;20043;-49
2020/12/27 07:28:16;;;;;;;4.75;2.97;;;;;;;-5.80;100.00;95642.50;4983936;28;20156;-45
2020/12/27 07:30:42;;;;;;;10.07;5.28;;;;;;;-5.78;100.00;95635.56;4954374;28;20541;-47
2020/12/27 07:33:10;;;;;;;9.48;3.92;;;;;;;-5.61;100.00;95635.69;4989925;28;20052;-45
2020/12/27 07:35:37;;;;;;;7.53;3.40;;;;;;;-5.52;100.00;95642.97;4935035;28;20038;-47
2020/12/27 07:38:07;;;;;;;4.32;2.80;;;;;;;-5.64;100.00;95637.53;4985873;28;20050;-48
2020/12/27 07:40:35;;;;;;;7.32;3.38;;;;;;;-5.65;100.00;95634.13;4939904;28;20093;-48
2020/12/27 07:43:08;;;;;;;8.68;4.13;;;;;;;-5.31;100.00;95609.50;4987826;28;20047;-50
2020/12/27 07:45:35;;;;;;;8.10;3.97;;;;;;;-5.20;99.09;95603.88;4955384;28;20168;-51
2020/12/27 07:48:02;;;;;;;5.80;3.15;;;;;;;-5.13;97.83;95595.81;4982850;28;20532;-47
2020/12/27 07:50:29;;;;;;;7.97;4.10;;;;;;;-4.98;98.69;95590.88;4979754;28;20133;-49
2020/12/27 07:52:57;;;;;;;6.78;3.97;;;;;;;-4.86;97.93;95585.13;4958959;28;20055;-49
2020/12/27 07:55:29;;;;;;;8.25;4.28;;;;;;;-4.71;97.50;95576.72;4980539;28;20069;-47
2020/12/27 07:57:58;;;;;;;6.53;3.83;;;;;;;-4.58;96.33;95571.78;4941779;28;20106;-46
2020/12/27 08:00:27;;;;;;;7.47;4.07;;;;;;;-4.56;95.92;95552.78;4985960;28;20104;-50
2020/12/27 08:02:54;;;;;;;9.10;3.90;;;;;;;-4.32;95.06;95553.31;4948994;28;20146;-47
2020/12/27 08:05:21;;;;;;;8.05;4.47;;;;;;;-4.21;94.80;95539.06;4985312;28;20042;-47
2020/12/27 08:07:48;;;;;;;8.32;4.20;;;;;;;-4.26;95.47;95535.91;4954518;28;20122;-52
2020/12/27 08:10:17;;;;;;;7.55;4.43;;;;;;;-4.04;94.13;95526.16;4985465;28;20116;-47
2020/12/27 08:12:55;;;;;;;9.95;4.30;;;;;;;-3.97;94.39;95517.22;4932543;28;20042;-51
2020/12/27 08:15:23;;;;;;;7.93;4.57;;;;;;;-3.73;93.24;95499.63;4985168;28;20227;-50
2020/12/27 08:17:59;;;;;;;9.90;4.57;;;;;;;-3.59;92.76;95479.13;4945875;28;20117;-50
2020/12/27 08:20:28;;;;;;;7.22;3.63;;;;;;;-3.42;90.93;95477.38;4979141;28;20583;-50
2020/12/27 08:23:01;;;;;;;8.38;4.47;;;;;;;-3.15;88.82;95477.59;4955189;28;20109;-48
2020/12/27 08:25:29;;;;;;;6.50;4.00;;;;;;;-2.97;88.13;95476.56;4979936;28;20464;-46
2020/12/27 08:27:57;;;;;;;6.22;4.53;;;;;;;-3.21;87.65;95463.28;4952651;28;20101;-49
2020/12/27 08:30:24;;;;;;;6.78;4.30;;;;;;;-3.27;86.91;95457.63;4981579;28;20074;-49
2020/12/27 08:33:10;;;;;;;8.82;4.13;;;;;;;-3.05;88.00;95457.28;4943629;28;20070;-49
2020/12/27 08:35:39;;;;;;;6.07;3.85;;;;;;;-2.72;87.27;95447.63;4973814;28;20074;-46
2020/12/27 08:38:35;;;;;;;6.93;4.22;;;;;;;-2.30;86.00;95446.00;4950779;28;20140;-49
2020/12/27 08:41:07;;;;;;;5.40;3.40;;;;;;;-2.45;84.23;95439.97;4982498;28;20053;-45
2020/12/27 08:44:00;;;;;;;6.65;3.80;;;;;;;-2.76;84.27;95440.94;4950412;28;20042;-47
2020/12/27 08:46:31;;;;;;;6.70;3.92;;;;;;;-2.52;84.19;95441.28;4981179;28;20472;-47
2020/12/27 08:49:03;;;;;;;6.18;4.03;;;;;;;-2.46;83.26;95437.50;4935736;28;20121;-45
2020/12/27 08:51:48;;;;;;;7.75;3.75;;;;;;;-2.26;83.09;95437.16;4983648;28;20054;-49
2020/12/27 08:54:16;;;;;;;5.20;3.08;;;;;;;-2.27;83.14;95440.66;4943940;28;20516;-45
2020/12/27 08:56:43;;;;;;;5.40;3.45;;;;;;;-2.04;81.59;95428.91;4986331;28;20084;-49
2020/12/27 08:59:13;;;;;;;5.53;3.40;;;;;;;-1.66;80.89;95425.72;4949307;28;20456;-46
2020/12/27 09:01:41;;;;;;;5.35;3.30;;;;;;;-1.51;78.92;95424.78;4976028;28;20046;-45
2020/12/27 09:04:18;;;;;;;4.63;2.78;;;;;;;-1.23;76.52;95416.09;4953038;28;20077;-47
2020/12/27 09:06:53;;;;;;;5.93;3.45;;;;;;;-1.12;76.73;95412.81;4984143;28;20138;-50
2020/12/27 09:09:20;;;;;;;7.72;4.90;;;;;;;-0.96;75.76;95399.72;4940244;28;20474;-48
2020/12/27 09:11:47;;;;;;;9.10;5.32;;;;;;;-0.87;75.01;95380.97;4984636;28;20117;-46
2020/12/27 09:14:32;;;;;;;5.13;2.80;;;;;;;-1.14;75.18;95383.59;4944727;28;20063;-47
2020/12/27 09:17:03;;;;;;;4.15;2.70;;;;;;;-0.88;74.89;95373.31;4983466;28;20066;-44
2020/12/27 09:19:34;;;;;;;10.40;5.47;;;;;;;-0.98;75.55;95367.91;4950000;28;20132;-49
2020/12/27 09:22:04;;;;;;;28.00;15.82;;;;;;;-1.25;77.28;95373.97;4982770;28;20054;-46
2020/12/27 09:24:31;;;;;;;18.02;10.02;;;;;;;-1.09;75.20;95362.63;4947084;28;20061;-49
2020/12/27 09:27:08;;;;;;;8.55;5.70;;;;;;;-1.11;75.84;95348.97;4982698;28;20054;-45
2020/12/27 09:29:35;;;;;;;9.73;6.63;;;;;;;-1.27;77.00;95325.88;4955679;28;20186;-50
2020/12/27 09:32:10;;;;;;;21.25;13.00;;;;;;;-1.47;80.28;95325.41;4982576;28;20063;-48
2020/12/27 09:34:38;;;;;;;38.80;23.15;;;;;;;-1.51;79.93;95320.56;4954836;28;20081;-45
2020/12/27 09:37:12;;;;;;;21.55;11.45;;;;;;;-1.51;78.15;95302.47;4977818;28;20048;-49
2020/12/27 09:39:40;;;;;;;4.43;3.08;;;;;;;-1.59;78.84;95302.09;4983803;28;20069;-49
2020/12/27 09:42:07;;;;;;;6.13;3.72;;;;;;;-1.73;78.61;95308.16;4945055;28;20125;-48
2020/12/27 09:44:33;;;;;;;5.57;3.65;;;;;;;-1.38;78.27;95303.28;4984559;28;20122;-46
2020/12/27 09:47:02;;;;;;;6.85;3.83;;;;;;;-0.94;75.18;95284.00;4940867;28;20053;-49
2020/12/27 09:49:31;;;;;;;7.53;4.00;;;;;;;-0.98;74.02;95282.53;4978941;28;20129;-47
2020/12/27 09:52:03;;;;;;;5.57;3.10;;;;;;;-0.68;73.23;95273.63;4955923;28;20124;-53
2020/12/27 09:54:31;;;;;;;6.43;3.30;;;;;;;-1.09;72.20;95266.94;4981769;28;20125;-49
2020/12/27 09:56:58;;;;;;;5.78;3.13;;;;;;;-0.92;72.55;95258.03;4954085;28;20043;-49
2020/12/27 09:59:25;;;;;;;4.13;2.33;;;;;;;-0.67;72.34;95252.00;4982359;28;20056;-51
2020/12/27 10:01:52;;;;;;;4.32;2.70;;;;;;;-0.43;72.13;95245.09;4940086;28;20074;-48
2020/12/27 10:04:19;;;;;;;4.10;2.67;;;;;;;-0.29;71.95;95242.34;4982090;28;20938;-53
2020/12/27 10:06:46;;;;;;;15.60;9.77;;;;;;;-0.61;70.76;95236.84;4950021;28;20470;-48
2020/12/27 10:09:14;;;;;;;4.53;2.30;;;;;;;-0.67;70.39;95224.34;4987364;28;20101;-47
2020/12/27 10:11:42;;;;;;;4.97;2.47;;;;;;;-0.54;71.75;95221.72;4951640;28;20145;-49
2020/12/27 10:14:09;;;;;;;13.35;10.38;;;;;;;-0.45;71.36;95207.28;4980020;28;20049;-50
2020/12/27 10:16:36;;;;;;;5.38;3.67;;;;;;;-0.56;70.17;95200.28;4940941;28;20205;-50
2020/12/27 10:19:03;;;;;;;9.02;6.82;;;;;;;-0.62;70.00;95198.97;4985589;28;20067;-50
2020/12/27 10:21:30;;;;;;;3.80;2.30;;;;;;;-0.52;68.25;95189.63;4944772;28;20053;-50
2020/12/27 10:23:56;;;;;;;4.00;2.35;;;;;;;0.02;68.00;95172.78;4983391;28;20069;-53
2020/12/27 10:26:24;;;;;;;4.40;3.33;;;;;;;-0.13;67.56;95173.91;4984160;28;20042;-49
2020/12/27 10:28:51;;;;;;;3.95;2.20;;;;;;;-0.32;67.84;95172.63;4951118;28;20055;-49
2020/12/27 10:31:20;;;;;;;3.08;2.10;;;;;;;0.16;67.81;95162.22;4982331;28;20082;-48
2020/12/27 10:33:47;;;;;;;3.15;2.30;;;;;;;0.16;66.04;95167.41;4957294;28;20065;-50
2020/12/27 10:36:14;;;;;;;4.97;1.92;;;;;;;0.02;66.53;95143.47;4977597;28;20038;-46
2020/12/27 10:38:41;;;;;;;3.08;2.00;;;;;;;-0.13;66.45;95135.88;4953524;28;20053;-51
2020/12/27 10:41:15;;;;;;;3.33;2.17;;;;;;;-0.04;66.09;95122.22;4987528;28;20414;-52
2020/12/27 10:43:49;;;;;;;3.42;2.47;;;;;;;-0.13;67.89;95112.56;4944906;28;20054;-49
2020/12/27 10:46:17;;;;;;;4.50;2.60;;;;;;;-0.12;67.66;95115.97;4987191;28;20053;-49
2020/12/27 10:48:45;;;;;;;3.90;2.40;;;;;;;-0.08;68.05;95105.28;4955295;28;20129;-48
2020/12/27 10:51:12;;;;;;;4.22;2.50;;;;;;;-0.05;67.55;95091.28;4991674;28;20038;-53
2020/12/27 10:53:38;;;;;;;5.43;2.40;;;;;;;0.06;69.26;95088.69;4957439;28;20523;-53
2020/12/27 10:56:07;;;;;;;3.30;2.40;;;;;;;0.64;67.73;95086.88;4989415;28;20126;-47
2020/12/27 10:58:33;;;;;;;3.28;1.80;;;;;;;0.15;68.16;95082.84;4949997;28;20504;-55
2020/12/27 11:01:01;;;;;;;4.32;2.70;;;;;;;0.12;67.85;95072.69;4983810;28;20054;-51
2020/12/27 11:03:28;;;;;;;3.53;2.10;;;;;;;0.19;67.79;95062.69;4951665;28;20089;-48
2020/12/27 11:05:55;;;;;;;4.00;2.30;;;;;;;0.03;68.86;95057.00;4989529;28;20116;-51
2020/12/27 11:08:21;;;;;;;4.00;2.30;;;;;;;0.07;69.39;95037.69;4953964;28;20598;-48
2020/12/27 11:10:49;;;;;;;8.77;4.45;;;;;;;-0.08;71.00;95021.53;4989777;28;20066;-54
2020/12/27 11:13:16;;;;;;;3.28;1.65;;;;;;;-0.08;70.29;95011.19;4989824;28;20045;-48
2020/12/27 11:15:42;;;;;;;3.50;1.95;;;;;;;0.22;69.94;95003.66;4938380;28;20062;-52
2020/12/27 11:18:11;;;;;;;3.88;2.25;;;;;;;0.22;69.08;95001.06;4990988;28;20073;-54
2020/12/27 11:20:38;;;;;;;3.92;2.40;;;;;;;0.17;69.39;94995.44;4944441;28;20053;-48
2020/12/27 11:23:05;;;;;;;3.47;2.30;;;;;;;0.31;70.18;94990.94;4989355;28;20141;-47
2020/12/27 11:25:32;;;;;;;3.95;1.98;;;;;;;0.29;69.98;94987.66;4952169;28;20042;-50
2020/12/27 11:27:59;;;;;;;3.65;2.25;;;;;;;0.31;69.76;94973.63;4985125;28;20181;-47
2020/12/27 11:30:27;;;;;;;4.15;2.08;;;;;;;0.50;69.11;94979.97;4952920;28;20038;-51
2020/12/27 11:32:53;;;;;;;4.97;2.63;;;;;;;0.93;67.32;94974.81;4985844;28;20038;-49
2020/12/27 11:35:21;;;;;;;3.47;2.20;;;;;;;1.27;66.15;94972.09;4952246;28;20517;-49
2020/12/27 11:37:50;;;;;;;4.18;2.10;;;;;;;1.14;65.43;94965.31;4984570;28;20066;-47
2020/12/27 11:40:17;;;;;;;3.58;1.90;;;;;;;1.10;65.38;94947.50;4948916;28;20141;-47
2020/12/27 11:42:44;;;;;;;4.03;2.20;;;;;;;1.59;65.31;94931.31;4980486;28;21087;-47
2020/12/27 11:45:11;;;;;;;3.58;2.20;;;;;;;1.64;64.56;94923.13;4957871;28;20042;-48
2020/12/27 11:47:38;;;;;;;4.05;1.95;;;;;;;1.49;63.52;94899.25;4981387;28;20046;-49
2020/12/27 11:50:10;;;;;;;4.70;1.80;;;;;;;1.16;64.50;94889.88;4943374;28;20053;-47
2020/12/27 11:52:38;;;;;;;3.60;2.08;;;;;;;0.86;65.72;94904.44;4985518;28;20414;-50
2020/12/27 11:55:06;;;;;;;4.40;2.30;;;;;;;0.84;67.22;94880.38;4946889;28;20050;-49
2020/12/27 11:57:34;;;;;;;4.85;3.17;;;;;;;0.74;65.68;94878.63;4980954;28;20065;-49
2020/12/27 12:00:01;;;;;;;5.43;3.00;;;;;;;0.79;65.60;94868.69;4987718;28;20452;-47